createdAt,value
2022-10-04T00:01:09.905Z,11.87
2022-10-04T00:03:44.591Z,10.63
2022-10-04T00:06:20.275Z,15.00
2022-10-04T00:08:53.346Z,12.37
2022-10-04T00:11:25.415Z,12.53
2022-10-04T00:13:58.348Z,9.73
2022-10-04T00:16:31.026Z,13.60
2022-10-04T00:19:22.257Z,11.90
2022-10-04T00:22:26.965Z,12.70
2022-10-04T00:25:22.439Z,13.97
2022-10-04T00:28:29.963Z,10.60
2022-10-04T00:31:21.244Z,13.77
2022-10-04T00:33:52.130Z,16.37
2022-10-04T00:36:48.160Z,15.73
2022-10-04T00:39:42.471Z,12.57
2022-10-04T00:42:47.005Z,9.57
2022-10-04T00:45:27.782Z,9.53
2022-10-04T00:48:21.339Z,12.10
2022-10-04T00:50:53.283Z,12.30
2022-10-04T00:53:25.983Z,12.30
2022-10-04T00:55:57.471Z,13.40
2022-10-04T00:58:44.487Z,12.50
2022-10-04T01:01:12.546Z,11.97
2022-10-04T01:03:44.640Z,12.30
2022-10-04T01:06:14.050Z,15.70
2022-10-04T01:08:46.989Z,12.40
2022-10-04T01:11:19.011Z,10.47
2022-10-04T01:13:51.059Z,12.77
2022-10-04T01:16:20.730Z,14.53
2022-10-04T01:18:50.000Z,9.97
2022-10-04T01:21:28.140Z,10.20
2022-10-04T01:24:18.232Z,10.53
2022-10-04T01:26:46.837Z,9.27
2022-10-04T01:29:17.319Z,12.47
2022-10-04T01:31:47.849Z,9.87
2022-10-04T01:34:18.158Z,10.70
2022-10-04T01:36:47.297Z,11.53
2022-10-04T01:39:18.781Z,8.13
2022-10-04T01:41:52.198Z,14.83
2022-10-04T01:44:30.483Z,9.17
2022-10-04T01:47:02.647Z,9.57
2022-10-04T01:49:33.327Z,11.03
2022-10-04T01:52:07.901Z,10.27
2022-10-04T01:54:41.788Z,10.40
2022-10-04T01:57:15.332Z,14.27
2022-10-04T01:59:48.175Z,12.00
2022-10-04T02:02:24.392Z,9.23
2022-10-04T02:04:56.585Z,13.63
2022-10-04T02:07:28.250Z,16.37
2022-10-04T02:10:00.419Z,11.30
2022-10-04T02:12:31.385Z,12.07
2022-10-04T02:15:02.315Z,11.63
2022-10-04T02:17:32.963Z,12.93
2022-10-04T02:20:03.154Z,11.97
2022-10-04T02:22:31.840Z,10.33
2022-10-04T02:25:01.793Z,12.60
2022-10-04T02:27:31.146Z,11.43
2022-10-04T02:30:03.260Z,12.00
2022-10-04T02:32:49.971Z,13.83
2022-10-04T02:35:19.091Z,13.07
2022-10-04T02:37:49.658Z,10.67
2022-10-04T02:40:22.472Z,10.87
2022-10-04T02:42:59.632Z,11.93
2022-10-04T02:45:34.303Z,10.33
2022-10-04T02:48:07.219Z,11.97
2022-10-04T02:50:39.923Z,14.03
2022-10-04T02:53:19.922Z,12.87
2022-10-04T02:55:49.878Z,12.03
2022-10-04T02:58:21.212Z,10.80
2022-10-04T03:00:51.440Z,9.77
2022-10-04T03:03:24.685Z,11.87
2022-10-04T03:06:01.891Z,11.50
2022-10-04T03:08:32.729Z,12.93
2022-10-04T03:11:05.271Z,10.37
2022-10-04T03:13:34.423Z,11.57
2022-10-04T03:16:02.504Z,9.50
2022-10-04T03:18:32.141Z,9.97
2022-10-04T03:21:03.423Z,11.63
2022-10-04T03:23:33.000Z,10.33
2022-10-04T03:26:07.084Z,14.37
2022-10-04T03:28:38.138Z,11.73
2022-10-04T03:31:06.741Z,11.30
2022-10-04T03:33:34.952Z,10.43
2022-10-04T03:36:03.424Z,11.73
2022-10-04T03:38:35.480Z,11.00
2022-10-04T03:41:04.974Z,13.20
2022-10-04T03:43:35.000Z,11.63
2022-10-04T03:46:05.243Z,11.93
2022-10-04T03:48:36.837Z,10.43
2022-10-04T03:51:08.613Z,11.33
2022-10-04T03:53:43.088Z,13.67
2022-10-04T03:56:14.346Z,10.23
2022-10-04T03:58:42.708Z,9.90
2022-10-04T04:01:25.880Z,9.53
2022-10-04T04:04:00.380Z,9.27
2022-10-04T04:06:35.700Z,10.87
2022-10-04T04:09:06.754Z,8.97
2022-10-04T04:11:36.919Z,9.23
2022-10-04T04:14:10.044Z,13.23
2022-10-04T04:16:38.760Z,11.00
2022-10-04T04:19:13.040Z,13.77
2022-10-04T04:21:42.133Z,8.23
2022-10-04T04:24:23.701Z,12.03
2022-10-04T04:26:57.399Z,9.20
2022-10-04T04:29:31.133Z,10.37
2022-10-04T04:32:03.089Z,12.33
2022-10-04T04:34:33.784Z,13.13
2022-10-04T04:37:03.127Z,9.13
2022-10-04T04:39:38.178Z,12.93
2022-10-04T04:42:18.044Z,15.17
2022-10-04T04:44:52.006Z,12.47
2022-10-04T04:47:33.724Z,10.30
2022-10-04T04:50:07.449Z,11.23
2022-10-04T04:52:36.051Z,10.77
2022-10-04T04:55:04.690Z,8.97
2022-10-04T04:57:34.863Z,8.47
2022-10-04T05:00:03.511Z,12.00
2022-10-04T05:02:34.908Z,7.90
2022-10-04T05:05:21.454Z,9.93
2022-10-04T05:07:50.619Z,7.57
2022-10-04T05:10:28.376Z,12.10
2022-10-04T05:12:59.698Z,10.77
2022-10-04T05:15:28.631Z,8.40
2022-10-04T05:17:56.609Z,8.40
2022-10-04T05:20:24.699Z,10.63
2022-10-04T05:22:52.923Z,8.03
2022-10-04T05:25:29.116Z,9.73
2022-10-04T05:27:58.666Z,11.27
2022-10-04T05:30:40.283Z,9.77
2022-10-04T05:33:09.898Z,10.50
2022-10-04T05:35:50.253Z,11.43
2022-10-04T05:38:27.735Z,10.47
2022-10-04T05:41:02.680Z,9.93
2022-10-04T05:43:36.970Z,12.07
2022-10-04T05:46:22.168Z,10.33
2022-10-04T05:48:54.467Z,11.23
2022-10-04T05:51:24.782Z,10.03
2022-10-04T05:53:53.327Z,9.37
2022-10-04T05:56:49.806Z,10.20
2022-10-04T05:59:32.216Z,9.50
2022-10-04T06:02:12.460Z,7.97
2022-10-04T06:04:56.901Z,10.10
2022-10-04T06:07:31.080Z,8.00
2022-10-04T06:10:27.712Z,9.20
2022-10-04T06:13:02.086Z,10.63
2022-10-04T06:15:52.868Z,7.63
2022-10-04T06:18:38.386Z,9.97
2022-10-04T06:21:20.600Z,10.47
2022-10-04T06:23:54.854Z,11.83
2022-10-04T06:26:25.891Z,8.37
2022-10-04T06:28:59.490Z,9.70
2022-10-04T06:31:56.965Z,11.00
2022-10-04T06:34:48.072Z,9.73
2022-10-04T06:37:43.584Z,9.63
2022-10-04T06:40:32.464Z,10.37
2022-10-04T06:43:17.509Z,13.50
2022-10-04T06:46:08.351Z,8.20
2022-10-04T06:48:56.492Z,10.87
2022-10-04T06:51:40.790Z,9.93
2022-10-04T06:54:27.444Z,10.40
2022-10-04T06:57:16.112Z,8.27
2022-10-04T06:59:59.863Z,10.90
2022-10-04T07:02:32.206Z,9.30
2022-10-04T07:05:08.817Z,7.10
2022-10-04T07:07:40.009Z,11.10
2022-10-04T07:10:22.768Z,7.10
2022-10-04T07:12:59.975Z,11.57
2022-10-04T07:15:33.082Z,9.47
2022-10-04T07:18:06.952Z,7.03
2022-10-04T07:20:37.940Z,10.03
2022-10-04T07:23:09.590Z,11.20
2022-10-04T07:25:45.175Z,11.90
2022-10-04T07:28:35.021Z,11.80
2022-10-04T07:31:10.514Z,10.93
2022-10-04T07:33:48.721Z,8.97
2022-10-04T07:36:23.148Z,9.23
2022-10-04T07:38:55.822Z,10.43
2022-10-04T07:41:29.923Z,10.30
2022-10-04T07:44:03.363Z,11.87
2022-10-04T07:46:45.912Z,11.80
2022-10-04T07:49:15.667Z,9.10
2022-10-04T07:52:02.759Z,10.37
2022-10-04T07:54:39.844Z,10.03
2022-10-04T07:57:17.541Z,9.37
2022-10-04T07:59:55.984Z,11.97
2022-10-04T08:02:36.580Z,8.10
2022-10-04T08:05:20.695Z,9.23
2022-10-04T08:08:15.867Z,10.33
2022-10-04T08:10:57.583Z,8.07
2022-10-04T08:13:34.596Z,10.23
2022-10-04T08:16:05.885Z,6.20
2022-10-04T08:18:44.139Z,8.10
2022-10-04T08:21:18.032Z,8.13
2022-10-04T08:24:08.084Z,7.40
2022-10-04T08:26:46.165Z,10.33
2022-10-04T08:29:42.439Z,8.47
2022-10-04T08:32:24.393Z,10.93
2022-10-04T08:35:20.474Z,7.13
2022-10-04T08:38:01.719Z,8.13
2022-10-04T08:41:18.355Z,6.57
2022-10-04T08:44:35.136Z,6.17
2022-10-04T08:47:44.242Z,6.07
2022-10-04T08:50:35.570Z,7.97
2022-10-04T08:53:53.976Z,7.33
2022-10-04T08:56:39.839Z,5.73
2022-10-04T08:59:50.788Z,11.47
2022-10-04T09:02:57.983Z,7.33
2022-10-04T09:05:59.711Z,6.50
2022-10-04T09:09:11.724Z,5.90
2022-10-04T09:12:07.742Z,10.90
2022-10-04T09:15:03.353Z,7.20
2022-10-04T09:17:44.469Z,6.93
2022-10-04T09:20:39.661Z,6.80
2022-10-04T09:23:23.026Z,7.83
2022-10-04T09:26:06.352Z,8.90
2022-10-04T09:29:15.375Z,8.67
2022-10-04T09:32:07.988Z,6.40
2022-10-04T09:35:06.193Z,6.83
2022-10-04T09:38:13.726Z,9.13
2022-10-04T09:41:08.841Z,9.83
2022-10-04T09:44:05.303Z,7.40
2022-10-04T09:46:56.714Z,10.77
2022-10-04T09:49:45.937Z,6.97
2022-10-04T09:52:30.752Z,7.57
2022-10-04T09:55:10.253Z,10.17
2022-10-04T09:57:55.376Z,6.83
2022-10-04T10:00:25.219Z,8.17
2022-10-04T10:03:32.605Z,7.73
2022-10-04T10:06:43.027Z,7.03
2022-10-04T10:09:47.397Z,6.67
2022-10-04T10:13:06.323Z,8.70
2022-10-04T10:15:44.780Z,5.67
2022-10-04T10:18:22.495Z,7.67
2022-10-04T10:21:12.690Z,6.57
2022-10-04T10:23:56.210Z,6.27
2022-10-04T10:26:57.820Z,7.30
2022-10-04T10:29:43.108Z,6.87
2022-10-04T10:32:24.015Z,9.33
2022-10-04T10:35:08.710Z,6.33
2022-10-04T10:37:48.468Z,8.67
2022-10-04T10:40:36.760Z,10.13
2022-10-04T10:43:18.312Z,6.23
2022-10-04T10:46:04.504Z,6.30
2022-10-04T10:48:53.004Z,8.37
2022-10-04T10:51:44.166Z,10.83
2022-10-04T10:54:47.259Z,7.47
2022-10-04T10:57:34.002Z,8.40
2022-10-04T11:00:28.530Z,4.70
2022-10-04T11:03:31.113Z,5.63
2022-10-04T11:06:35.636Z,6.87
2022-10-04T11:09:32.651Z,6.90
2022-10-04T11:12:39.971Z,4.97
2022-10-04T11:15:39.504Z,6.37
2022-10-04T11:18:40.793Z,5.93
2022-10-04T11:21:35.029Z,7.30
2022-10-04T11:24:31.258Z,7.93
2022-10-04T11:27:33.474Z,6.50
2022-10-04T11:30:14.097Z,4.17
2022-10-04T11:33:23.412Z,5.37
2022-10-04T11:36:17.829Z,7.10
2022-10-04T11:39:02.494Z,6.10
2022-10-04T11:41:47.643Z,5.43
2022-10-04T11:44:47.736Z,4.83
2022-10-04T11:47:29.885Z,6.37
2022-10-04T11:50:25.541Z,6.17
2022-10-04T11:53:25.789Z,6.27
2022-10-04T11:56:12.867Z,6.13
2022-10-04T11:59:01.167Z,6.00
2022-10-04T12:02:02.134Z,4.37
2022-10-04T12:05:03.331Z,5.57
2022-10-04T12:07:41.639Z,7.27
2022-10-04T12:10:24.226Z,5.57
2022-10-04T12:13:11.509Z,5.10
2022-10-04T12:16:06.201Z,4.23
2022-10-04T12:19:00.733Z,6.20
2022-10-04T12:21:42.144Z,7.17
2022-10-04T12:24:24.056Z,5.30
2022-10-04T12:27:28.212Z,3.07
2022-10-04T12:30:26.473Z,6.97
2022-10-04T12:33:07.216Z,6.03
2022-10-04T12:36:00.159Z,6.03
2022-10-04T12:38:47.314Z,3.80
2022-10-04T12:41:30.023Z,3.80
2022-10-04T12:44:10.823Z,3.03
2022-10-04T12:46:51.509Z,4.57
2022-10-04T12:49:30.404Z,3.30
2022-10-04T12:52:05.843Z,4.20
2022-10-04T12:54:38.853Z,5.20
2022-10-04T12:57:29.004Z,4.67
2022-10-04T13:00:06.470Z,4.47
2022-10-04T13:02:51.986Z,3.83
2022-10-04T13:05:27.241Z,4.33
2022-10-04T13:08:08.591Z,3.53
2022-10-04T13:11:01.295Z,4.10
2022-10-04T13:14:04.896Z,3.03
2022-10-04T13:19:39.448Z,3.30
2022-10-04T13:22:51.438Z,5.93
2022-10-04T13:25:29.250Z,2.77
2022-10-04T13:28:05.571Z,3.30
2022-10-04T13:30:43.885Z,3.90
2022-10-04T13:33:26.469Z,3.37
2022-10-04T13:36:01.132Z,3.97
2022-10-04T13:39:09.296Z,4.37
2022-10-04T13:41:54.520Z,7.17
2022-10-04T13:44:36.303Z,3.57
2022-10-04T13:47:27.710Z,6.00
2022-10-04T13:50:20.274Z,4.73
2022-10-04T13:53:13.082Z,3.93
2022-10-04T13:56:05.327Z,4.00
2022-10-04T13:58:44.199Z,4.93
2022-10-04T14:01:49.760Z,5.73
2022-10-04T14:04:43.439Z,7.27
2022-10-04T14:07:42.628Z,5.20
2022-10-04T14:10:52.215Z,4.47
2022-10-04T14:13:53.734Z,4.90
2022-10-04T14:16:56.118Z,4.00
2022-10-04T14:19:58.107Z,4.03
2022-10-04T14:23:04.675Z,3.50
2022-10-04T14:26:08.395Z,2.93
2022-10-04T14:28:57.061Z,4.43
2022-10-04T14:31:59.189Z,4.33
2022-10-04T14:34:55.014Z,4.27
2022-10-04T14:37:53.173Z,3.13
2022-10-04T14:40:49.671Z,3.57
2022-10-04T14:43:48.965Z,5.60
2022-10-04T14:46:24.649Z,3.17
2022-10-04T14:49:04.884Z,4.63
2022-10-04T14:51:48.083Z,2.97
2022-10-04T14:54:28.984Z,4.67
2022-10-04T14:57:02.454Z,5.10
2022-10-04T14:59:48.090Z,4.70
2022-10-04T15:02:37.580Z,4.40
2022-10-04T15:05:31.770Z,6.30
2022-10-04T15:08:28.427Z,4.23
2022-10-04T15:11:00.143Z,4.70
2022-10-04T15:13:35.187Z,4.30
2022-10-04T15:16:15.857Z,6.47
2022-10-04T15:19:05.035Z,4.93
2022-10-04T15:21:59.269Z,2.70
2022-10-04T15:24:31.063Z,4.27
2022-10-04T15:27:36.097Z,3.30
2022-10-04T15:30:13.989Z,4.57
2022-10-04T15:32:49.642Z,7.13
2022-10-04T15:35:25.250Z,3.50
2022-10-04T15:37:59.931Z,3.40
2022-10-04T15:40:38.220Z,5.57
2022-10-04T15:43:24.059Z,4.93
2022-10-04T15:46:26.644Z,2.90
2022-10-04T15:49:16.446Z,4.73
2022-10-04T15:52:13.468Z,3.50
2022-10-04T15:55:13.140Z,3.20
2022-10-04T15:58:11.163Z,7.67
2022-10-04T16:00:50.476Z,5.77
2022-10-04T16:03:31.762Z,3.97
2022-10-04T16:06:07.034Z,5.80
2022-10-04T16:08:52.174Z,5.60
2022-10-04T16:11:35.271Z,3.30
2022-10-04T16:14:20.235Z,3.30
2022-10-04T16:17:29.652Z,4.43
2022-10-04T16:20:20.216Z,9.07
2022-10-04T16:23:21.784Z,4.43
2022-10-04T16:25:52.149Z,4.70
2022-10-04T16:28:30.327Z,4.17
2022-10-04T16:31:20.875Z,5.07
2022-10-04T16:33:57.405Z,4.43
2022-10-04T16:36:31.904Z,4.70
2022-10-04T16:39:20.096Z,4.87
2022-10-04T16:42:00.522Z,4.97
2022-10-04T16:44:37.259Z,6.07
2022-10-04T16:47:21.321Z,5.13
2022-10-04T16:49:57.042Z,4.97
2022-10-04T16:52:45.952Z,5.47
2022-10-04T16:55:42.667Z,6.53
2022-10-04T16:58:50.544Z,14.50
2022-10-04T17:02:06.126Z,6.10
2022-10-04T17:05:16.339Z,8.57
2022-10-04T17:07:58.813Z,6.07
2022-10-04T17:10:35.004Z,6.83
2022-10-04T17:13:17.252Z,7.03
2022-10-04T17:16:00.246Z,7.00
2022-10-04T17:18:36.746Z,6.77
2022-10-04T17:21:11.789Z,5.73
2022-10-04T17:24:14.379Z,5.77
2022-10-04T17:27:05.235Z,5.63
2022-10-04T17:29:44.931Z,9.43
2022-10-04T17:32:24.519Z,9.93
2022-10-04T17:35:09.037Z,8.37
2022-10-04T17:37:47.260Z,7.67
2022-10-04T17:40:34.378Z,7.70
2022-10-04T17:43:09.152Z,6.97
2022-10-04T17:45:53.814Z,5.50
2022-10-04T17:48:44.287Z,6.17
2022-10-04T17:51:47.470Z,6.47
2022-10-04T17:54:37.254Z,7.57
2022-10-04T17:57:19.546Z,6.07
2022-10-04T17:59:51.116Z,7.00
2022-10-04T18:02:22.678Z,7.97
2022-10-04T18:04:56.662Z,8.37
2022-10-04T18:07:27.609Z,7.40
2022-10-04T18:09:59.640Z,6.50
2022-10-04T18:12:30.893Z,7.37
2022-10-04T18:15:04.271Z,9.77
2022-10-04T18:17:37.635Z,6.83
2022-10-04T18:20:27.783Z,6.90
2022-10-04T18:23:01.806Z,14.07
2022-10-04T18:25:32.052Z,8.43
2022-10-04T18:28:12.040Z,7.70
2022-10-04T18:30:53.887Z,8.17
2022-10-04T18:33:26.443Z,8.47
2022-10-04T18:36:05.475Z,7.77
2022-10-04T18:38:35.552Z,8.50
2022-10-04T18:41:05.279Z,8.70
2022-10-04T18:43:36.331Z,9.53
2022-10-04T18:46:06.858Z,10.93
2022-10-04T18:48:40.577Z,8.63
2022-10-04T18:51:31.107Z,8.97
2022-10-04T18:54:24.948Z,8.27
2022-10-04T18:57:01.339Z,7.33
2022-10-04T18:59:55.628Z,8.77
2022-10-04T19:02:34.858Z,8.67
2022-10-04T19:05:15.247Z,6.80
2022-10-04T19:07:50.898Z,7.70
2022-10-04T19:10:28.719Z,7.27
2022-10-04T19:13:12.123Z,6.83
2022-10-04T19:15:45.652Z,7.20
2022-10-04T19:18:32.773Z,7.60
2022-10-04T19:21:05.560Z,8.73
2022-10-04T19:23:45.705Z,11.37
2022-10-04T19:26:31.804Z,8.27
2022-10-04T19:29:08.258Z,8.13
2022-10-04T19:31:49.102Z,8.03
2022-10-04T19:34:21.337Z,7.40
2022-10-04T19:36:57.081Z,9.63
2022-10-04T19:39:37.694Z,7.23
2022-10-04T19:42:12.339Z,10.07
2022-10-04T19:44:57.333Z,6.57
2022-10-04T19:47:39.617Z,9.47
2022-10-04T19:50:18.101Z,10.53
2022-10-04T19:52:52.411Z,8.07
2022-10-04T19:55:32.577Z,10.83
2022-10-04T19:58:14.171Z,8.97
2022-10-04T20:00:42.080Z,10.00
2022-10-04T20:03:12.709Z,11.47
2022-10-04T20:05:44.965Z,12.27
2022-10-04T20:08:14.176Z,8.60
2022-10-04T20:10:44.273Z,10.77
2022-10-04T20:13:23.288Z,8.93
2022-10-04T20:15:53.564Z,8.30
2022-10-04T20:19:05.019Z,9.67
2022-10-04T20:21:32.981Z,10.27
2022-10-04T20:24:01.607Z,8.00
2022-10-04T20:26:56.397Z,8.20
2022-10-04T20:30:03.811Z,7.07
2022-10-04T20:32:59.617Z,9.47
2022-10-04T20:36:00.892Z,7.50
2022-10-04T20:38:47.428Z,7.33
2022-10-04T20:42:22.425Z,6.60
2022-10-04T20:44:57.841Z,6.53
2022-10-04T20:47:39.165Z,8.77
2022-10-04T20:50:29.375Z,10.10
2022-10-04T20:52:59.123Z,8.63
2022-10-04T20:55:28.658Z,6.83
2022-10-04T20:58:02.943Z,6.83
2022-10-04T21:00:34.582Z,7.67
2022-10-04T21:03:17.595Z,8.13
2022-10-04T21:05:49.884Z,11.70
2022-10-04T21:08:25.480Z,8.47
2022-10-04T21:11:19.715Z,8.23
2022-10-04T21:13:58.151Z,8.77
2022-10-04T21:16:51.123Z,8.20
2022-10-04T21:19:46.875Z,7.47
2022-10-04T21:22:40.214Z,6.97
2022-10-04T21:25:41.081Z,9.53
2022-10-04T21:28:39.509Z,9.90
2022-10-04T21:31:08.763Z,8.97
2022-10-04T21:33:37.437Z,7.30
2022-10-04T21:36:06.785Z,9.47
2022-10-04T21:38:34.687Z,7.73
2022-10-04T21:41:02.782Z,17.37
2022-10-04T21:43:30.638Z,9.23
2022-10-04T21:45:58.860Z,6.83
2022-10-04T21:48:28.305Z,9.73
2022-10-04T21:50:56.462Z,8.37
2022-10-04T21:53:24.322Z,11.73
2022-10-04T21:55:52.156Z,9.57
2022-10-04T21:58:20.015Z,6.73
2022-10-04T22:00:47.903Z,11.00
2022-10-04T22:03:15.788Z,7.83
2022-10-04T22:05:44.987Z,8.90
2022-10-04T22:08:12.884Z,9.70
2022-10-04T22:10:40.938Z,8.40
2022-10-04T22:13:08.820Z,9.13
2022-10-04T22:15:36.778Z,8.73
2022-10-04T22:18:04.775Z,7.60
2022-10-04T22:20:32.890Z,8.23
2022-10-04T22:23:03.458Z,8.53
2022-10-04T22:25:31.256Z,8.37
2022-10-04T22:28:00.620Z,7.40
2022-10-04T22:30:31.041Z,10.10
2022-10-04T22:33:01.447Z,9.00
2022-10-04T22:35:31.684Z,8.13
2022-10-04T22:38:02.230Z,9.83
2022-10-04T22:40:30.557Z,8.43
2022-10-04T22:43:00.663Z,7.83
2022-10-04T22:45:33.241Z,7.63
2022-10-04T22:48:03.294Z,8.70
2022-10-04T22:50:33.507Z,8.80
2022-10-04T22:53:11.911Z,9.07
2022-10-04T22:55:41.084Z,9.57
2022-10-04T22:58:12.465Z,7.97
2022-10-04T23:00:40.306Z,8.60
2022-10-04T23:03:21.122Z,8.93
2022-10-04T23:05:49.026Z,7.10
2022-10-04T23:08:18.751Z,7.10
2022-10-04T23:10:46.844Z,8.37
2022-10-04T23:13:14.752Z,8.17
2022-10-04T23:15:43.045Z,6.90
2022-10-04T23:18:15.917Z,8.53
2022-10-04T23:20:44.079Z,7.13
2022-10-04T23:23:17.138Z,8.37
2022-10-04T23:25:47.114Z,9.57
2022-10-04T23:28:17.086Z,7.73
2022-10-04T23:30:46.411Z,7.90
2022-10-04T23:33:17.454Z,9.07
2022-10-04T23:35:45.470Z,9.57
2022-10-04T23:38:16.624Z,8.70
2022-10-04T23:40:46.102Z,6.90
2022-10-04T23:43:24.951Z,7.87
2022-10-04T23:45:53.851Z,9.30
2022-10-04T23:48:25.091Z,8.67
2022-10-04T23:50:54.996Z,9.47
2022-10-04T23:53:26.721Z,6.63
2022-10-04T23:55:57.137Z,9.17
2022-10-04T23:58:28.070Z,9.57
